Time;durP1;ratioP1;P1;durP2;ratioP2;P2;SDS_P1;SDS_P2;PMS_P1;PMS_P2;Temp;Humidity;BMP_temperature;BMP_pressure;BME280_temperature;BME280_humidity;BME280_pressure;Samples;Min_cycle;Max_cycle;Signal;HPM_P1;HPM_P2
2023/06/18 00:00:19;;;;;;;13.80;12.40;;;;;;;16.63;60.42;100145.65;109159;1278;22520;-85
2023/06/18 00:03:10;;;;;;;13.50;12.10;;;;;;;16.58;60.55;100149.66;109274;1274;21999;-84
2023/06/18 00:06:12;;;;;;;14.10;12.80;;;;;;;16.53;60.58;100150.18;109392;1274;21999;-86
2023/06/18 00:08:42;;;;;;;14.80;13.10;;;;;;;16.50;60.82;100152.13;109409;1275;21956;-85
2023/06/18 00:11:13;;;;;;;12.90;11.60;;;;;;;16.48;60.67;100151.19;109336;1275;21944;-85
2023/06/18 00:13:44;;;;;;;12.80;11.60;;;;;;;16.44;60.79;100146.51;109642;1268;23053;-83
2023/06/18 00:16:15;;;;;;;13.50;12.10;;;;;;;16.41;60.98;100146.20;110368;1268;23947;-85
2023/06/18 00:18:47;;;;;;;13.60;12.20;;;;;;;16.37;61.17;100149.39;110307;1268;23033;-85
2023/06/18 00:21:17;;;;;;;12.50;11.20;;;;;;;16.34;61.25;100151.05;110336;1268;23811;-85
2023/06/18 00:23:47;;;;;;;14.30;12.90;;;;;;;16.31;61.40;100150.86;110155;1268;22006;-84
2023/06/18 00:26:18;;;;;;;14.40;12.90;;;;;;;16.29;61.43;100144.49;110193;1268;21975;-85
2023/06/18 00:28:52;;;;;;;16.90;12.90;;;;;;;16.24;61.45;100141.29;110394;1259;21963;-84
2023/06/18 00:31:25;;;;;;;14.50;13.10;;;;;;;16.20;61.53;100145.61;109946;1271;22051;-83
2023/06/18 00:34:06;;;;;;;13.50;12.40;;;;;;;16.15;61.79;100147.86;109232;1276;23061;-82
2023/06/18 00:36:43;;;;;;;14.80;13.00;;;;;;;16.12;61.84;100146.67;108983;1276;23014;-84
2023/06/18 00:39:18;;;;;;;16.00;13.40;;;;;;;16.07;61.85;100145.37;105769;1276;4560916;-84
2023/06/18 00:41:50;;;;;;;13.10;11.90;;;;;;;16.04;62.20;100144.53;108956;1280;23236;-83
2023/06/18 00:44:20;;;;;;;13.60;12.40;;;;;;;16.02;62.47;100146.77;108914;1280;22026;-83
2023/06/18 00:47:06;;;;;;;15.30;13.80;;;;;;;15.98;62.42;100147.01;108878;1281;22050;-83
2023/06/18 00:49:36;;;;;;;15.40;13.70;;;;;;;15.96;62.50;100149.61;109050;1281;21864;-85
2023/06/18 00:52:14;;;;;;;15.20;13.80;;;;;;;15.94;62.72;100148.33;109071;1275;22007;-83
2023/06/18 00:58:03;;;;;;;13.70;12.60;;;;;;;15.85;62.75;100142.08;109019;1279;22165;-85
2023/06/18 01:00:46;;;;;;;14.50;13.00;;;;;;;15.81;62.86;100144.93;109252;1275;22313;-84
2023/06/18 01:03:18;;;;;;;14.90;13.60;;;;;;;15.76;62.79;100141.20;109057;1276;23090;-83
2023/06/18 01:06:03;;;;;;;16.00;14.50;;;;;;;15.73;63.06;100142.10;109245;1276;22001;-83
2023/06/18 01:08:35;;;;;;;16.20;14.70;;;;;;;15.69;63.11;100142.01;109338;1276;21991;-82
2023/06/18 01:11:09;;;;;;;14.90;13.70;;;;;;;15.64;63.19;100142.46;109235;1276;22015;-80
2023/06/18 01:13:39;;;;;;;14.20;12.80;;;;;;;15.60;63.30;100143.89;109209;1276;23050;-80
2023/06/18 01:16:24;;;;;;;15.40;13.90;;;;;;;15.54;63.44;100139.87;109360;1274;22219;-81
2023/06/18 01:19:01;;;;;;;17.50;13.40;;;;;;;15.49;63.58;100144.92;109504;1273;21989;-84
2023/06/18 01:21:45;;;;;;;15.40;13.90;;;;;;;15.47;63.62;100141.36;109883;1268;21976;-83
2023/06/18 01:24:23;;;;;;;15.50;14.10;;;;;;;15.46;63.94;100139.88;110079;1268;23085;-83
2023/06/18 01:27:08;;;;;;;15.10;13.80;;;;;;;15.46;64.15;100137.59;110090;1268;22443;-83
2023/06/18 01:29:42;;;;;;;14.70;13.30;;;;;;;15.43;64.19;100127.11;110059;1268;22461;-82
2023/06/18 01:32:21;;;;;;;15.30;13.80;;;;;;;15.47;64.27;100133.14;110132;1268;23612;-81
2023/06/18 01:35:16;;;;;;;15.90;14.30;;;;;;;15.46;64.25;100133.56;110384;1267;21993;-84
2023/06/18 01:38:43;;;;;;;15.60;14.30;;;;;;;15.41;64.19;100127.86;110147;1259;21982;-85
2023/06/18 01:41:34;;;;;;;15.80;14.30;;;;;;;15.35;64.27;100132.44;110181;1268;21975;-84
2023/06/18 01:44:12;;;;;;;17.30;15.60;;;;;;;15.34;64.30;100135.18;110069;1267;22144;-86
2023/06/18 01:46:55;;;;;;;15.70;14.20;;;;;;;15.33;64.53;100139.44;109900;1267;23726;-84
2023/06/18 01:49:27;;;;;;;16.10;14.60;;;;;;;15.32;64.57;100144.60;110045;1268;22013;-82
2023/06/18 01:52:07;;;;;;;14.00;12.60;;;;;;;15.30;64.71;100143.62;110052;1268;23039;-83
2023/06/18 01:54:40;;;;;;;14.70;13.40;;;;;;;15.32;64.80;100148.66;110130;1268;22448;-82
2023/06/18 01:57:16;;;;;;;16.20;14.60;;;;;;;15.30;64.87;100146.10;110172;1268;23039;-84
2023/06/18 02:00:07;;;;;;;14.40;13.00;;;;;;;15.30;64.93;100150.16;110117;1267;21973;-84
2023/06/18 02:02:42;;;;;;;14.70;13.40;;;;;;;15.29;65.02;100149.34;109482;1274;22063;-80
2023/06/18 02:05:23;;;;;;;15.70;14.40;;;;;;;15.30;65.28;100149.80;109376;1274;24141;-79
2023/06/18 02:07:58;;;;;;;14.70;13.40;;;;;;;15.33;65.28;100149.59;109429;1274;24929;-83
2023/06/18 02:10:34;;;;;;;14.70;13.50;;;;;;;15.36;65.26;100153.44;109321;1273;23903;-83
2023/06/18 02:13:12;;;;;;;15.20;13.80;;;;;;;15.40;65.43;100157.77;109298;1273;23042;-77
2023/06/18 02:15:45;;;;;;;15.20;13.90;;;;;;;15.43;65.47;100163.36;109175;1274;23685;-79
2023/06/18 02:18:14;;;;;;;15.00;13.70;;;;;;;15.46;65.37;100158.44;109217;1273;21978;-80
2023/06/18 02:20:44;;;;;;;14.40;12.90;;;;;;;15.50;65.52;100157.48;109691;1265;23688;-79
2023/06/18 02:23:15;;;;;;;15.90;13.90;;;;;;;15.55;65.46;100152.48;110167;1268;21885;-83
2023/06/18 02:25:53;;;;;;;14.10;12.80;;;;;;;15.58;65.29;100158.23;110071;1268;21980;-84
2023/06/18 02:28:27;;;;;;;14.90;13.60;;;;;;;15.62;65.23;100166.22;110075;1268;21984;-82
2023/06/18 02:30:59;;;;;;;16.30;14.60;;;;;;;15.63;65.13;100168.66;110308;1267;22052;-83
2023/06/18 02:33:30;;;;;;;14.60;13.40;;;;;;;15.64;65.02;100175.04;110178;1268;22975;-81
2023/06/18 02:36:17;;;;;;;16.70;15.20;;;;;;;15.66;65.07;100175.27;109993;1268;21983;-81
2023/06/18 02:38:52;;;;;;;16.00;14.60;;;;;;;15.66;65.07;100179.88;110091;1268;22735;-84
2023/06/18 02:41:24;;;;;;;13.30;12.10;;;;;;;15.64;64.75;100181.72;109542;1274;21978;-82
2023/06/18 02:43:55;;;;;;;14.70;13.30;;;;;;;15.62;64.78;100184.83;109491;1274;21991;-81
2023/06/18 02:46:30;;;;;;;18.50;14.70;;;;;;;15.63;64.93;100184.39;109511;1273;22004;-81
2023/06/18 02:49:03;;;;;;;14.30;13.00;;;;;;;15.66;64.83;100184.62;109472;1274;22735;-82
2023/06/18 02:51:37;;;;;;;16.30;14.80;;;;;;;15.65;64.79;100182.02;109433;1273;22085;-81
2023/06/18 02:54:10;;;;;;;13.90;12.60;;;;;;;15.65;64.82;100182.01;109520;1274;21982;-81
2023/06/18 02:56:43;;;;;;;14.70;13.20;;;;;;;15.66;64.92;100186.55;109614;1274;22878;-82
2023/06/18 02:59:13;;;;;;;16.40;13.20;;;;;;;15.68;64.53;100191.66;109655;1268;21977;-82
2023/06/18 03:01:45;;;;;;;14.70;13.10;;;;;;;15.68;64.57;100193.58;109914;1272;23717;-81
2023/06/18 03:04:27;;;;;;;13.80;12.30;;;;;;;15.69;64.66;100191.42;109318;1276;23727;-81
2023/06/18 03:07:03;;;;;;;15.60;13.40;;;;;;;15.69;64.81;100191.78;109382;1274;22730;-81
2023/06/18 03:09:43;;;;;;;;;;;;;;;;;;;;;
2023/06/18 03:12:31;;;;;;;;;;;;;;;15.74;64.95;100187.80;109306;1276;23013;-80
2023/06/18 03:15:10;;;;;;;15.10;13.80;;;;;;;15.69;65.12;100186.20;109179;1280;22091;-84
2023/06/18 03:17:46;;;;;;;14.50;12.90;;;;;;;15.72;65.07;100191.25;108775;1286;22463;-82
2023/06/18 03:20:27;;;;;;;17.70;14.50;;;;;;;15.77;65.11;100194.10;108587;1286;22001;-84
2023/06/18 03:23:01;;;;;;;16.70;15.30;;;;;;;15.83;64.93;100197.79;108705;1282;22083;-82
2023/06/18 03:25:49;;;;;;;16.50;14.50;;;;;;;15.83;65.02;100195.36;108679;1285;22009;-82
2023/06/18 03:28:40;;;;;;;15.50;13.70;;;;;;;15.85;64.99;100199.09;108858;1283;22041;-80
2023/06/18 03:31:10;;;;;;;14.40;13.10;;;;;;;15.91;64.96;100206.80;108798;1284;23098;-83
2023/06/18 03:33:39;;;;;;;16.50;15.00;;;;;;;15.99;65.08;100211.19;108921;1280;21991;-79
2023/06/18 03:36:15;;;;;;;15.10;13.60;;;;;;;16.05;64.83;100208.71;108931;1278;22365;-84
2023/06/18 03:38:46;;;;;;;15.50;14.00;;;;;;;16.10;64.81;100208.92;109032;1278;23042;-83
2023/06/18 03:41:18;;;;;;;15.40;13.40;;;;;;;16.13;64.75;100209.96;108992;1277;22002;-81
2023/06/18 03:43:48;;;;;;;15.20;13.90;;;;;;;16.13;64.43;100208.20;109371;1274;22007;-81
2023/06/18 03:46:23;;;;;;;16.40;14.60;;;;;;;16.15;64.55;100210.88;109325;1276;21961;-82
2023/06/18 03:49:03;;;;;;;17.00;15.10;;;;;;;16.17;64.48;100210.23;109219;1276;22150;-81
2023/06/18 03:51:36;;;;;;;15.60;14.10;;;;;;;16.18;64.45;100209.44;109246;1276;21983;-82
2023/06/18 03:54:06;;;;;;;15.30;13.80;;;;;;;16.19;64.30;100207.11;108960;1276;22077;-82
2023/06/18 03:56:52;;;;;;;16.00;14.50;;;;;;;16.20;64.29;100207.59;109165;1278;23766;-80
2023/06/18 03:59:27;;;;;;;16.20;14.00;;;;;;;16.23;64.31;100207.25;109184;1278;23142;-81
2023/06/18 04:02:10;;;;;;;16.40;14.80;;;;;;;16.27;64.69;100207.27;109190;1277;21996;-81
2023/06/18 04:04:44;;;;;;;15.70;14.30;;;;;;;16.35;64.66;100204.52;109406;1274;22834;-85
2023/06/18 04:07:15;;;;;;;17.60;15.90;;;;;;;16.44;64.62;100205.53;109462;1274;23764;-80
2023/06/18 04:09:51;;;;;;;16.90;15.20;;;;;;;16.53;64.60;100203.19;109563;1263;23042;-82
2023/06/18 04:12:22;;;;;;;16.90;15.40;;;;;;;16.60;64.49;100205.52;109228;1278;23917;-81
2023/06/18 04:14:54;;;;;;;16.30;15.00;;;;;;;16.66;64.22;100206.73;109216;1278;22002;-81
2023/06/18 04:17:26;;;;;;;17.50;15.90;;;;;;;16.70;64.04;100207.52;108858;1283;22765;-79
2023/06/18 04:20:02;;;;;;;16.40;14.80;;;;;;;16.72;63.94;100207.39;109170;1278;21952;-82
2023/06/18 04:22:41;;;;;;;17.60;16.00;;;;;;;16.74;63.91;100206.03;108894;1282;23101;-81
2023/06/18 04:25:22;;;;;;;17.20;15.90;;;;;;;16.80;64.04;100205.31;108814;1283;21999;-82
2023/06/18 04:27:56;;;;;;;16.80;15.30;;;;;;;16.83;63.63;100206.15;108679;1285;21856;-82
2023/06/18 04:30:38;;;;;;;16.70;15.20;;;;;;;16.88;63.75;100209.84;108605;1281;22383;-84
2023/06/18 04:33:11;;;;;;;17.20;15.60;;;;;;;16.93;63.67;100209.02;108981;1281;21952;-83
2023/06/18 04:35:45;;;;;;;17.80;16.10;;;;;;;16.98;63.66;100206.21;109054;1277;21948;-82
2023/06/18 04:38:15;;;;;;;17.20;15.40;;;;;;;16.99;63.08;100205.63;109253;1277;23087;-81
2023/06/18 04:40:47;;;;;;;17.30;15.70;;;;;;;17.02;63.29;100206.38;109440;1273;23699;-82
2023/06/18 04:43:19;;;;;;;18.00;16.40;;;;;;;17.04;63.40;100208.10;109479;1272;22736;-82
2023/06/18 04:45:58;;;;;;;18.70;17.10;;;;;;;17.07;63.33;100210.55;109713;1272;22839;-83
2023/06/18 04:48:28;;;;;;;16.20;14.60;;;;;;;17.11;63.28;100210.98;109212;1276;23640;-85
2023/06/18 04:50:58;;;;;;;18.00;16.50;;;;;;;17.15;63.40;100207.58;109261;1276;22401;-82
2023/06/18 04:53:31;;;;;;;;;;;;;;;17.19;63.41;100206.92;109425;1275;21992;-82
2023/06/18 04:56:04;;;;;;;17.20;15.60;;;;;;;17.15;63.56;100209.15;108827;1283;22935;-80
2023/06/18 04:58:40;;;;;;;18.30;16.60;;;;;;;17.21;63.53;100214.55;108669;1287;22010;-79
2023/06/18 05:01:16;;;;;;;15.80;14.50;;;;;;;17.29;63.52;100219.84;108646;1282;22430;-80
2023/06/18 05:03:49;;;;;;;16.70;15.20;;;;;;;17.35;63.54;100222.04;108546;1282;23722;-79
2023/06/18 05:06:20;;;;;;;18.10;16.30;;;;;;;17.44;63.52;100223.91;108704;1278;23635;-79
2023/06/18 05:08:55;;;;;;;18.10;16.40;;;;;;;17.49;63.19;100225.65;108916;1278;22534;-78
2023/06/18 05:11:24;;;;;;;18.30;16.80;;;;;;;17.55;63.09;100226.84;109015;1278;22637;-79
2023/06/18 05:13:58;;;;;;;17.30;15.70;;;;;;;17.62;63.18;100228.63;108920;1273;23721;-79
2023/06/18 05:16:32;;;;;;;17.70;16.10;;;;;;;17.70;63.21;100227.73;109312;1268;21983;-79
2023/06/18 05:19:04;;;;;;;17.80;16.40;;;;;;;17.79;63.29;100223.38;110197;1268;22928;-78
2023/06/18 05:21:33;;;;;;;17.30;16.00;;;;;;;17.90;63.04;100231.64;110024;1268;22019;-78
2023/06/18 05:24:07;;;;;;;18.60;16.50;;;;;;;17.99;62.92;100231.91;109844;1268;21971;-78
2023/06/18 05:26:37;;;;;;;17.00;15.60;;;;;;;18.07;62.91;100235.91;109745;1271;22322;-80
2023/06/18 05:29:06;;;;;;;17.40;15.70;;;;;;;18.18;62.85;100236.02;109415;1275;23740;-80
2023/06/18 05:31:35;;;;;;;17.30;15.70;;;;;;;18.30;62.66;100241.48;109040;1280;21967;-82
2023/06/18 05:34:05;;;;;;;18.20;16.60;;;;;;;18.38;62.33;100239.55;109015;1280;23009;-79
2023/06/18 05:36:34;;;;;;;17.40;15.90;;;;;;;18.45;62.40;100240.10;109274;1280;23093;-79
2023/06/18 05:39:06;;;;;;;18.00;16.50;;;;;;;18.54;62.07;100244.36;109168;1280;21965;-83
2023/06/18 05:41:44;;;;;;;17.90;16.30;;;;;;;18.65;62.47;100246.02;108890;1285;22765;-83
2023/06/18 05:44:14;;;;;;;18.80;17.20;;;;;;;18.83;62.32;100250.51;108849;1282;22087;-81
2023/06/18 05:46:43;;;;;;;17.30;15.60;;;;;;;19.02;62.14;100253.70;108793;1279;22003;-79
2023/06/18 05:49:13;;;;;;;18.00;16.50;;;;;;;19.23;61.89;100255.46;109271;1274;22084;-81
2023/06/18 05:51:45;;;;;;;18.10;16.30;;;;;;;19.40;61.33;100256.63;109029;1278;21992;-82
2023/06/18 05:54:14;;;;;;;17.80;16.20;;;;;;;19.59;61.00;100259.44;109176;1278;22972;-82
2023/06/18 05:56:45;;;;;;;17.60;16.00;;;;;;;19.77;60.63;100260.05;109211;1278;23756;-81
2023/06/18 05:59:18;;;;;;;19.00;17.00;;;;;;;19.88;59.93;100264.48;109251;1273;23587;-81
2023/06/18 06:01:51;;;;;;;18.00;16.30;;;;;;;19.99;59.65;100270.00;109560;1273;22283;-82
2023/06/18 06:04:20;;;;;;;17.60;16.20;;;;;;;20.07;59.24;100270.06;109173;1277;23253;-82
2023/06/18 06:06:50;;;;;;;19.20;17.60;;;;;;;20.15;59.17;100272.64;109294;1277;21996;-83
2023/06/18 06:09:20;;;;;;;18.90;17.20;;;;;;;20.20;58.75;100273.98;108949;1277;23623;-83
2023/06/18 06:11:52;;;;;;;20.00;17.70;;;;;;;20.26;59.03;100283.58;109113;1277;21993;-85
2023/06/18 06:14:22;;;;;;;18.20;16.70;;;;;;;20.35;58.76;100285.05;108783;1277;23660;-81
2023/06/18 06:16:59;;;;;;;18.20;16.70;;;;;;;20.56;59.49;100290.43;108868;1282;22002;-82
2023/06/18 06:19:48;;;;;;;18.80;17.00;;;;;;;21.00;59.52;100292.84;108865;1282;21998;-82
2023/06/18 06:22:19;;;;;;;17.80;16.30;;;;;;;21.39;57.83;100293.82;108992;1277;21995;-80
2023/06/18 06:25:15;;;;;;;18.90;17.10;;;;;;;21.65;56.88;100294.70;108887;1270;22002;-84
2023/06/18 06:27:55;;;;;;;17.20;15.60;;;;;;;21.87;55.89;100298.70;108769;1285;22016;-87
2023/06/18 06:30:33;;;;;;;15.80;14.60;;;;;;;22.02;55.54;100301.86;108770;1284;23745;-83
2023/06/18 06:33:22;;;;;;;15.70;14.50;;;;;;;22.19;55.23;100308.13;108497;1288;22052;-85
2023/06/18 06:35:55;;;;;;;15.40;14.20;;;;;;;22.41;54.56;100308.42;108396;1288;22071;-85
2023/06/18 06:38:30;;;;;;;15.10;13.90;;;;;;;22.48;53.90;100308.86;108173;1288;23145;-84
2023/06/18 06:41:00;;;;;;;13.90;12.80;;;;;;;22.55;53.44;100309.63;108292;1292;22005;-83
2023/06/18 06:43:34;;;;;;;16.60;15.20;;;;;;;22.65;53.10;100309.80;108252;1294;22015;-81
2023/06/18 06:46:40;;;;;;;15.30;13.70;;;;;;;22.78;53.23;100310.63;107903;1294;23112;-83
2023/06/18 06:49:41;;;;;;;14.90;13.60;;;;;;;23.02;53.01;100314.63;108045;1294;23063;-86
2023/06/18 06:52:52;;;;;;;8.10;11.90;;;;;;;23.27;52.45;100313.48;108082;1293;22618;-82
2023/06/18 06:55:40;;;;;;;17.50;13.50;;;;;;;23.48;52.37;100314.19;108329;1289;22076;-79
2023/06/18 06:58:26;;;;;;;14.40;12.40;;;;;;;23.61;51.35;100314.59;108653;1283;22013;-80
2023/06/18 07:00:59;;;;;;;17.40;15.30;;;;;;;23.65;51.04;100312.95;108772;1279;22466;-84
2023/06/18 07:03:30;;;;;;;14.80;13.50;;;;;;;23.69;50.80;100315.55;108990;1279;22034;-83
2023/06/18 07:06:08;;;;;;;13.40;12.20;;;;;;;23.73;50.64;100319.87;109481;1272;21990;-80
2023/06/18 07:08:42;;;;;;;16.50;15.20;;;;;;;23.72;50.63;100315.66;109605;1271;22009;-83
2023/06/18 07:11:17;;;;;;;12.70;11.60;;;;;;;23.71;50.41;100312.95;109558;1273;23830;-80
2023/06/18 07:13:46;;;;;;;12.60;11.50;;;;;;;23.76;50.40;100316.00;109664;1273;21979;-79
2023/06/18 07:16:16;;;;;;;13.00;11.90;;;;;;;23.82;50.18;100313.83;109377;1273;22055;-80
2023/06/18 07:19:01;;;;;;;;;;;;;;;23.91;50.05;100313.79;109529;1273;24299;-82
2023/06/18 07:21:57;;;;;;;14.80;12.40;;;;;;;23.86;50.19;100314.95;109595;1273;23629;-82
2023/06/18 07:24:30;;;;;;;14.90;11.50;;;;;;;23.89;49.92;100314.08;109196;1276;23011;-81
2023/06/18 07:27:05;;;;;;;16.30;14.90;;;;;;;23.80;49.26;100311.59;109033;1276;22000;-78
2023/06/18 07:29:36;;;;;;;13.80;12.60;;;;;;;23.65;49.59;100312.42;109406;1273;23040;-78
2023/06/18 07:32:10;;;;;;;12.70;11.60;;;;;;;23.51;49.68;100310.91;109279;1273;21981;-78
2023/06/18 07:34:56;;;;;;;13.80;12.60;;;;;;;23.38;49.81;100308.90;108905;1278;22480;-80
2023/06/18 07:37:26;;;;;;;13.40;12.50;;;;;;;23.27;50.41;100312.23;109055;1276;22089;-81
2023/06/18 07:39:58;;;;;;;28.70;26.10;;;;;;;23.25;50.62;100312.98;108952;1277;23344;-80
2023/06/18 07:42:30;;;;;;;16.70;15.30;;;;;;;23.23;50.66;100314.55;109360;1272;22459;-82
2023/06/18 07:45:23;;;;;;;13.60;12.10;;;;;;;23.23;50.73;100312.89;109410;1274;22979;-86
2023/06/18 07:48:18;;;;;;;12.30;11.10;;;;;;;23.22;50.85;100318.39;109333;1274;22008;-79
2023/06/18 07:51:01;;;;;;;13.70;12.60;;;;;;;23.17;50.64;100321.81;109293;1274;22295;-79
2023/06/18 07:53:33;;;;;;;14.40;13.00;;;;;;;23.10;50.42;100320.34;109450;1272;21997;-82
2023/06/18 07:56:09;;;;;;;12.60;11.40;;;;;;;22.98;50.52;100320.83;109784;1272;22041;-79
2023/06/18 07:58:40;;;;;;;16.20;15.00;;;;;;;22.93;50.67;100320.23;109725;1272;23023;-80
2023/06/18 08:01:15;;;;;;;14.70;13.40;;;;;;;22.90;50.78;100320.87;109726;1272;23065;-80
2023/06/18 08:03:45;;;;;;;13.90;12.60;;;;;;;22.86;50.64;100325.82;109700;1272;21982;-80
2023/06/18 08:06:14;;;;;;;23.10;20.90;;;;;;;22.77;50.69;100326.79;109715;1272;22159;-79
2023/06/18 08:08:42;;;;;;;12.80;11.80;;;;;;;22.73;50.98;100331.23;109758;1272;22762;-80
2023/06/18 08:11:17;;;;;;;;;;;;;;;22.71;50.98;100332.82;109555;1272;23737;-80
2023/06/18 08:13:46;;;;;;;12.90;9.50;;;;;;;22.62;51.23;100334.14;109650;1272;23709;-82
2023/06/18 08:16:17;;;;;;;9.80;9.00;;;;;;;22.66;51.01;100334.05;109918;1268;22144;-82
2023/06/18 08:18:46;;;;;;;12.50;10.10;;;;;;;22.70;50.64;100329.71;110344;1268;21976;-81
2023/06/18 08:21:16;;;;;;;12.20;11.20;;;;;;;22.73;50.31;100323.28;110131;1268;22707;-81
2023/06/18 08:23:45;;;;;;;12.40;11.20;;;;;;;22.76;50.47;100320.10;109644;1273;21964;-80
2023/06/18 08:26:19;;;;;;;11.90;10.80;;;;;;;22.89;50.59;100314.34;109470;1273;21986;-79
2023/06/18 08:28:50;;;;;;;11.40;10.30;;;;;;;23.08;50.18;100317.10;109077;1280;23921;-81
2023/06/18 08:31:21;;;;;;;11.60;10.80;;;;;;;23.31;50.18;100319.27;109215;1279;23114;-80
2023/06/18 08:33:51;;;;;;;12.00;9.90;;;;;;;23.63;49.92;100316.71;108850;1280;22057;-82
2023/06/18 08:36:25;;;;;;;11.30;10.20;;;;;;;24.02;49.65;100318.73;109123;1280;22489;-80
2023/06/18 08:38:55;;;;;;;10.30;9.40;;;;;;;24.50;48.74;100318.23;109043;1280;22004;-82
2023/06/18 08:41:32;;;;;;;12.50;10.00;;;;;;;24.95;47.67;100317.98;108987;1277;21999;-83
2023/06/18 08:44:14;;;;;;;9.30;8.50;;;;;;;25.27;46.06;100312.88;109160;1277;23042;-81
2023/06/18 08:47:16;;;;;;;9.50;8.40;;;;;;;25.58;45.39;100309.95;109407;1273;22030;-81
2023/06/18 08:49:51;;;;;;;10.70;8.60;;;;;;;25.95;45.31;100311.45;109401;1273;21996;-82
2023/06/18 08:52:23;;;;;;;10.60;7.60;;;;;;;26.21;43.87;100315.73;109532;1267;22028;-83
2023/06/18 08:55:09;;;;;;;9.20;7.80;;;;;;;26.28;43.46;100309.87;109557;1273;21991;-85
2023/06/18 08:58:08;;;;;;;7.20;6.50;;;;;;;26.34;42.71;100307.80;110163;1273;22006;-86
2023/06/18 09:00:58;;;;;;;8.90;7.90;;;;;;;26.23;42.08;100305.70;109823;1271;23772;-87
2023/06/18 09:03:56;;;;;;;10.50;8.40;;;;;;;26.12;42.25;100311.86;109952;1271;22011;-86
2023/06/18 09:06:50;;;;;;;13.20;12.00;;;;;;;25.95;41.71;100315.73;109950;1271;21996;-84
2023/06/18 09:09:24;;;;;;;9.00;8.20;;;;;;;25.78;41.94;100317.46;109607;1273;21990;-82
2023/06/18 09:12:00;;;;;;;10.40;8.80;;;;;;;25.57;42.28;100314.61;109634;1273;22129;-84
2023/06/18 09:14:31;;;;;;;9.00;7.70;;;;;;;25.45;42.85;100314.23;109565;1273;21988;-83
2023/06/18 09:17:01;;;;;;;11.10;7.90;;;;;;;25.42;43.21;100309.54;109519;1271;22981;-83
2023/06/18 09:19:32;;;;;;;9.00;8.30;;;;;;;25.50;43.25;100307.48;109966;1271;23348;-83
2023/06/18 09:22:14;;;;;;;;;;;;;;;25.66;43.23;100306.93;110059;1271;22796;-84
2023/06/18 09:24:55;;;;;;;7.50;6.90;;;;;;;25.81;43.12;100300.48;109647;1274;21981;-86
2023/06/18 09:27:36;;;;;;;6.80;6.20;;;;;;;26.02;42.33;100299.35;109289;1274;22009;-78
2023/06/18 09:30:07;;;;;;;6.90;6.30;;;;;;;26.19;41.27;100292.27;108691;1279;23015;-77
2023/06/18 09:32:47;;;;;;;7.50;6.90;;;;;;;26.32;40.71;100289.65;108571;1284;22070;-82
2023/06/18 09:35:27;;;;;;;7.60;6.80;;;;;;;26.34;40.00;100287.31;108593;1284;21998;-84
2023/06/18 09:38:07;;;;;;;6.40;5.80;;;;;;;26.35;40.01;100283.20;108559;1287;23075;-83
2023/06/18 09:40:41;;;;;;;7.70;6.50;;;;;;;26.43;40.05;100282.02;108489;1281;23075;-83
2023/06/18 09:43:13;;;;;;;6.90;6.30;;;;;;;26.48;39.56;100281.13;108704;1283;21982;-81
2023/06/18 09:45:47;;;;;;;7.50;6.50;;;;;;;26.40;38.92;100274.65;108898;1284;22033;-83
2023/06/18 09:48:16;;;;;;;8.40;6.90;;;;;;;26.20;38.95;100273.88;108884;1278;22144;-82
2023/06/18 09:50:46;;;;;;;7.00;5.80;;;;;;;26.04;39.29;100269.70;109211;1273;21968;-77
2023/06/18 09:53:32;;;;;;;7.60;6.20;;;;;;;25.91;39.38;100262.04;109540;1273;22287;-83
2023/06/18 09:56:16;;;;;;;5.90;5.40;;;;;;;25.97;39.63;100268.90;109723;1265;23128;-82
2023/06/18 09:58:54;;;;;;;7.50;6.20;;;;;;;26.02;39.36;100268.36;109905;1268;21975;-82
2023/06/18 10:01:27;;;;;;;6.10;5.50;;;;;;;26.06;38.99;100268.05;110093;1268;22219;-82
2023/06/18 10:03:56;;;;;;;5.70;5.20;;;;;;;26.09;38.83;100261.90;110056;1268;21988;-81
2023/06/18 10:06:26;;;;;;;5.70;4.80;;;;;;;26.08;38.47;100261.44;110481;1268;21995;-81
2023/06/18 10:08:58;;;;;;;7.40;5.30;;;;;;;26.02;38.26;100260.00;109827;1272;22728;-81
2023/06/18 10:11:30;;;;;;;6.20;5.10;;;;;;;25.88;38.15;100259.05;109768;1272;22020;-83
2023/06/18 10:14:06;;;;;;;5.90;5.20;;;;;;;25.81;38.74;100254.62;109488;1272;21972;-81
2023/06/18 10:16:35;;;;;;;5.40;4.90;;;;;;;25.87;38.67;100253.09;109338;1277;21991;-82
2023/06/18 10:19:32;;;;;;;5.50;5.00;;;;;;;25.96;38.17;100252.41;108911;1282;22464;-83
2023/06/18 10:22:03;;;;;;;4.70;4.30;;;;;;;26.01;37.99;100250.14;108786;1282;22014;-78
2023/06/18 10:24:42;;;;;;;;;;;;;;;26.09;37.78;100248.20;108452;1286;22055;-78
2023/06/18 10:27:14;;;;;;;7.40;4.30;;;;;;;26.05;37.67;100246.48;108651;1286;22002;-77
2023/06/18 10:29:46;;;;;;;5.00;4.60;;;;;;;26.11;37.68;100245.83;108239;1292;23828;-78
2023/06/18 10:32:16;;;;;;;4.70;4.30;;;;;;;26.21;37.22;100246.91;108222;1292;22016;-81
2023/06/18 10:34:47;;;;;;;4.90;4.20;;;;;;;26.32;36.76;100246.84;108692;1283;23872;-82
2023/06/18 10:37:17;;;;;;;5.40;4.70;;;;;;;26.42;36.61;100246.30;108735;1283;22069;-78
2023/06/18 10:39:49;;;;;;;7.40;4.30;;;;;;;26.51;36.24;100244.27;108869;1283;23712;-82
2023/06/18 10:42:30;;;;;;;7.00;4.40;;;;;;;26.59;35.96;100245.25;108911;1279;22027;-80
2023/06/18 10:45:35;;;;;;;5.20;4.70;;;;;;;26.61;35.74;100242.30;109323;1269;22461;-81
2023/06/18 10:48:30;;;;;;;5.60;4.40;;;;;;;26.53;35.41;100243.51;109814;1268;23027;-80
2023/06/18 10:51:18;;;;;;;5.00;4.30;;;;;;;26.44;35.39;100240.91;109988;1268;22383;-81
2023/06/18 10:54:38;;;;;;;5.30;4.50;;;;;;;26.31;35.70;100241.24;110100;1268;23707;-81
2023/06/18 10:57:13;;;;;;;6.10;5.50;;;;;;;26.14;36.23;100244.05;109724;1272;22056;-80
2023/06/18 10:59:49;;;;;;;6.60;6.10;;;;;;;26.01;37.00;100240.98;109786;1272;23608;-81
2023/06/18 11:02:35;;;;;;;7.80;6.50;;;;;;;25.99;37.83;100237.70;109839;1272;21956;-81
2023/06/18 11:05:15;;;;;;;6.50;5.50;;;;;;;26.06;38.13;100238.13;109361;1276;21962;-80
2023/06/18 11:08:08;;;;;;;8.70;7.50;;;;;;;26.06;37.95;100233.92;109140;1276;21997;-81
2023/06/18 11:11:08;;;;;;;11.10;4.10;;;;;;;26.04;38.03;100235.55;109302;1276;23612;-82
2023/06/18 11:13:53;;;;;;;12.70;5.50;;;;;;;25.97;37.68;100234.61;109586;1275;22020;-82
2023/06/18 11:16:23;;;;;;;5.30;4.80;;;;;;;26.02;38.32;100236.83;109675;1272;21989;-81
2023/06/18 11:18:57;;;;;;;4.60;4.20;;;;;;;25.99;38.62;100229.64;109142;1271;23097;-83
2023/06/18 11:21:27;;;;;;;7.20;4.80;;;;;;;25.77;38.38;100227.55;109173;1277;22130;-82
2023/06/18 11:24:27;;;;;;;4.20;3.80;;;;;;;25.46;38.76;100230.91;109106;1274;21995;-86
2023/06/18 11:27:22;;;;;;;4.60;3.80;;;;;;;25.08;38.76;100227.80;109459;1274;23058;-81
2023/06/18 11:29:57;;;;;;;7.00;4.10;;;;;;;24.87;38.47;100234.60;109103;1280;22069;-80
2023/06/18 11:32:30;;;;;;;5.30;4.00;;;;;;;24.74;38.42;100237.66;108874;1280;23711;-80
2023/06/18 11:35:12;;;;;;;3.00;2.70;;;;;;;24.62;38.48;100239.02;108223;1283;24335;-81
2023/06/18 11:37:44;;;;;;;7.20;3.20;;;;;;;24.53;38.13;100237.95;108617;1279;22011;-79
2023/06/18 11:40:17;;;;;;;8.50;3.50;;;;;;;24.44;37.85;100242.01;108997;1279;22152;-80
2023/06/18 11:42:57;;;;;;;4.60;4.00;;;;;;;24.38;37.83;100252.58;108985;1279;23767;-82
2023/06/18 11:45:32;;;;;;;4.60;4.20;;;;;;;24.30;37.89;100257.26;109295;1279;21999;-83
2023/06/18 11:48:04;;;;;;;6.50;5.60;;;;;;;24.27;38.89;100262.99;109631;1274;23017;-84
2023/06/18 11:50:34;;;;;;;5.40;4.90;;;;;;;24.19;40.02;100267.40;109653;1274;23090;-83
2023/06/18 11:53:05;;;;;;;20.20;9.10;;;;;;;24.08;40.87;100267.30;109964;1270;21981;-83
2023/06/18 11:55:36;;;;;;;6.80;4.60;;;;;;;24.01;41.64;100263.59;110057;1270;21950;-83